Time;durP1;ratioP1;P1;durP2;ratioP2;P2;SDS_P1;SDS_P2;PMS_P1;PMS_P2;Temp;Humidity;BMP_temperature;BMP_pressure;BME280_temperature;BME280_humidity;BME280_pressure;Samples;Min_cycle;Max_cycle;Signal;HPM_P1;HPM_P2
2022/01/05 00:01:10;;;;;;;48.83;13.10;;;;;;;5.08;92.39;100336.13;5051447;28;20099;-85
2022/01/05 00:03:37;;;;;;;22.45;12.65;;;;;;;3.91;92.25;100123.41;5051004;28;20134;-86
2022/01/05 00:06:04;;;;;;;44.03;14.10;;;;;;;4.31;92.43;100193.38;5051007;28;20454;-84
2022/01/05 00:08:31;;;;;;;39.33;13.05;;;;;;;4.59;92.33;100248.34;5049859;28;20048;-85
2022/01/05 00:10:58;;;;;;;87.05;14.60;;;;;;;3.98;92.10;100135.16;5049910;28;20569;-85
2022/01/05 00:13:24;;;;;;;30.40;14.18;;;;;;;4.75;92.06;100234.09;5051063;28;20454;-85
2022/01/05 00:15:51;;;;;;;63.05;14.15;;;;;;;4.56;92.28;100234.53;5049430;28;20052;-84
2022/01/05 00:18:18;;;;;;;63.08;14.40;;;;;;;3.63;92.15;100083.28;5066805;28;20488;-83
2022/01/05 00:20:45;;;;;;;48.50;15.38;;;;;;;5.28;92.40;100332.91;5049637;28;20076;-86
2022/01/05 00:23:12;;;;;;;48.25;14.48;;;;;;;3.66;92.24;100071.72;5049718;28;20056;-84
2022/01/05 00:25:38;;;;;;;42.67;16.10;;;;;;;3.67;92.57;100067.34;5049741;28;20455;-84
2022/01/05 00:28:05;;;;;;;40.45;14.23;;;;;;;3.57;91.94;100041.72;5054209;28;20044;-82
2022/01/05 00:30:32;;;;;;;29.13;15.05;;;;;;;3.72;92.41;100052.09;5054861;28;20087;-84
2022/01/05 00:32:59;;;;;;;31.60;15.45;;;;;;;5.27;92.85;100306.72;5053593;28;20075;-85
2022/01/05 00:35:25;;;;;;;34.22;15.15;;;;;;;4.82;92.48;100236.19;5053356;28;20053;-82
2022/01/05 00:37:52;;;;;;;43.10;16.13;;;;;;;4.29;92.26;100143.53;5052838;28;20411;-83
2022/01/05 00:40:19;;;;;;;41.17;14.80;;;;;;;5.26;92.78;100276.06;5053520;28;20202;-85
2022/01/05 00:42:45;;;;;;;39.55;15.52;;;;;;;4.85;92.43;100193.88;5055244;28;20052;-84
2022/01/05 00:45:13;;;;;;;34.55;14.85;;;;;;;4.50;92.20;100110.47;5054523;28;20049;-84
2022/01/05 00:47:40;;;;;;;37.78;14.90;;;;;;;5.51;91.74;100277.75;5053391;28;20484;-84
2022/01/05 00:50:07;;;;;;;45.72;14.90;;;;;;;5.46;91.85;100267.59;5054663;28;20548;-87
2022/01/05 00:52:34;;;;;;;41.88;15.70;;;;;;;4.37;91.71;100101.81;5053334;28;20139;-85
2022/01/05 00:55:02;;;;;;;38.58;15.63;;;;;;;4.03;91.33;100033.25;5053539;28;20048;-85
2022/01/05 00:57:28;;;;;;;33.60;14.90;;;;;;;5.45;91.43;100254.53;5069674;28;20049;-84
2022/01/05 00:59:55;;;;;;;36.00;14.70;;;;;;;3.62;91.61;99967.91;5054421;28;20139;-86
2022/01/05 01:02:21;;;;;;;39.75;15.02;;;;;;;4.63;91.64;100135.88;5052328;28;20065;-83
2022/01/05 01:04:49;;;;;;;55.33;15.07;;;;;;;4.07;91.30;100037.31;5052836;28;20494;-85
2022/01/05 01:07:16;;;;;;;71.05;16.13;;;;;;;4.17;91.37;100049.81;5052768;28;20186;-85
2022/01/05 01:09:42;;;;;;;117.05;17.38;;;;;;;4.52;91.22;100134.03;5052904;28;20053;-85
2022/01/05 01:12:09;;;;;;;144.73;19.48;;;;;;;4.36;91.65;100102.72;5052946;28;20596;-84
2022/01/05 01:14:36;;;;;;;71.65;15.68;;;;;;;5.02;91.64;100183.94;5054385;28;20517;-87
2022/01/05 01:17:03;;;;;;;50.65;15.13;;;;;;;4.29;91.50;100049.75;5052896;28;20084;-85
2022/01/05 01:19:30;;;;;;;72.97;14.52;;;;;;;4.32;91.23;100058.38;5052879;28;20053;-83
2022/01/05 01:21:58;;;;;;;37.38;12.68;;;;;;;4.66;90.59;100056.78;5052692;28;20073;-83
2022/01/05 01:24:26;;;;;;;61.47;13.40;;;;;;;4.78;89.11;100107.66;5052793;28;20554;-82
2022/01/05 01:26:53;;;;;;;84.45;16.50;;;;;;;3.56;89.42;99942.91;5052802;28;20142;-83
2022/01/05 01:29:19;;;;;;;47.78;13.25;;;;;;;3.82;90.09;100000.63;5052869;28;20049;-85
2022/01/05 01:31:47;;;;;;;50.60;12.93;;;;;;;4.43;90.43;100103.97;5053117;28;20045;-85
2022/01/05 01:34:14;;;;;;;60.58;13.80;;;;;;;4.65;90.80;100113.78;5054420;28;20062;-82
2022/01/05 01:36:41;;;;;;;53.53;13.68;;;;;;;5.45;90.56;100210.59;5054678;28;20144;-83
2022/01/05 01:39:08;;;;;;;93.43;15.70;;;;;;;5.28;90.40;100196.03;5051456;28;20080;-84
2022/01/05 01:41:37;;;;;;;43.97;14.68;;;;;;;4.43;90.92;100069.81;5052223;28;20045;-83
2022/01/05 01:44:06;;;;;;;53.67;14.15;;;;;;;5.17;91.30;100188.13;5052531;28;20049;-83
2022/01/05 01:46:33;;;;;;;48.53;12.73;;;;;;;3.78;90.48;99970.25;5053536;28;20131;-84
2022/01/05 01:49:00;;;;;;;105.13;15.00;;;;;;;3.47;91.13;99927.81;5054033;28;20071;-86
2022/01/05 01:51:26;;;;;;;82.20;16.20;;;;;;;4.55;91.36;100080.41;5052745;28;20081;-84
2022/01/05 01:53:53;;;;;;;56.50;14.20;;;;;;;3.71;91.36;99937.53;5052449;28;20163;-85
2022/01/05 01:56:23;;;;;;;64.47;14.82;;;;;;;3.41;91.44;99912.50;5053226;28;20061;-84
2022/01/05 01:58:51;;;;;;;66.55;14.43;;;;;;;4.37;91.16;100074.66;5053143;28;20049;-84
2022/01/05 02:01:18;;;;;;;45.97;12.50;;;;;;;4.37;92.11;100078.16;5062511;28;20061;-85
2022/01/05 02:03:45;;;;;;;61.25;12.65;;;;;;;3.42;91.47;99914.16;5048648;28;20107;-85
2022/01/05 02:06:11;;;;;;;80.78;12.77;;;;;;;3.70;91.50;99993.59;5047156;28;20525;-86
2022/01/05 02:08:38;;;;;;;45.40;11.77;;;;;;;3.10;91.48;99908.53;5048147;28;20045;-84
2022/01/05 02:11:07;;;;;;;34.80;11.45;;;;;;;3.20;91.66;99907.81;5067010;28;20450;-85
2022/01/05 02:13:34;;;;;;;36.75;11.32;;;;;;;4.82;91.91;100166.97;5066815;28;20080;-87
2022/01/05 02:16:01;;;;;;;29.10;11.88;;;;;;;4.42;91.79;100112.81;5067069;28;20051;-85
2022/01/05 02:21:07;;;;;;;37.00;10.65;;;;;;;4.78;91.89;100182.16;5068469;28;20445;-85
2022/01/05 02:23:35;;;;;;;36.08;10.32;;;;;;;4.75;91.32;100161.31;5067187;28;20071;-84
2022/01/05 02:26:04;;;;;;;31.92;9.35;;;;;;;4.65;91.39;100153.22;5067090;28;20143;-84
2022/01/05 02:28:31;;;;;;;25.38;10.02;;;;;;;4.59;91.57;100134.44;5066354;28;20053;-85
2022/01/05 02:30:58;;;;;;;31.80;11.02;;;;;;;4.70;91.65;100116.94;5066856;28;20050;-85
2022/01/05 02:33:25;;;;;;;17.85;10.27;;;;;;;4.68;91.35;100134.63;5067933;28;20076;-84
2022/01/05 02:35:55;;;;;;;25.75;10.50;;;;;;;4.51;91.32;100116.56;5067353;28;20056;-85
2022/01/05 02:38:22;;;;;;;25.30;9.15;;;;;;;4.52;91.39;100127.94;5066914;28;20322;-85
2022/01/05 02:40:51;;;;;;;38.28;11.23;;;;;;;4.49;91.58;100119.31;5068015;28;20559;-83
2022/01/05 02:43:17;;;;;;;25.83;10.07;;;;;;;4.53;91.86;100134.88;5066692;28;20040;-84
2022/01/05 02:45:44;;;;;;;25.52;10.05;;;;;;;4.45;92.39;100117.84;5066659;28;20076;-85
2022/01/05 02:48:11;;;;;;;33.20;10.93;;;;;;;3.27;92.27;99910.81;5066293;28;20098;-86
2022/01/05 02:50:38;;;;;;;46.33;12.23;;;;;;;4.34;92.58;100082.78;5066813;28;20080;-86
2022/01/05 02:53:04;;;;;;;42.50;11.88;;;;;;;3.70;92.79;99983.09;5067798;28;20083;-85
2022/01/05 02:55:31;;;;;;;40.92;11.52;;;;;;;4.59;92.77;100092.38;5067852;28;20113;-84
2022/01/05 02:57:58;;;;;;;57.55;12.43;;;;;;;3.02;92.57;99822.53;5066837;28;20045;-86
2022/01/05 03:00:24;;;;;;;44.20;12.07;;;;;;;3.49;92.43;99902.28;5067335;28;20043;-84
2022/01/05 03:02:51;;;;;;;22.67;11.57;;;;;;;3.09;92.01;99836.88;5065951;28;20114;-85
2022/01/05 03:05:19;;;;;;;57.47;12.85;;;;;;;3.35;92.18;99878.81;5067423;28;20052;-85
2022/01/05 03:07:46;;;;;;;24.30;11.03;;;;;;;4.42;92.59;100041.03;5067406;28;20460;-84
2022/01/05 03:10:16;;;;;;;41.47;12.10;;;;;;;3.85;92.62;99945.25;5066002;28;20056;-86
2022/01/05 03:12:45;;;;;;;49.45;12.93;;;;;;;4.09;92.38;99968.09;5067586;28;20053;-86
2022/01/05 03:15:12;;;;;;;53.03;13.07;;;;;;;4.37;92.85;100015.06;5067735;28;20169;-86
2022/01/05 03:17:39;;;;;;;29.33;11.15;;;;;;;4.25;92.89;99980.00;5065975;28;20048;-85
2022/01/05 03:20:09;;;;;;;68.75;14.73;;;;;;;4.57;92.50;99989.13;5066231;28;20079;-85
2022/01/05 03:22:36;;;;;;;35.47;12.03;;;;;;;4.47;92.39;99968.75;5067561;28;20055;-85
2022/01/05 03:25:04;;;;;;;35.93;10.43;;;;;;;4.58;92.04;99996.88;5065685;28;20041;-85
2022/01/05 03:27:32;;;;;;;14.40;9.27;;;;;;;4.20;91.86;99913.81;5066138;28;20237;-84
2022/01/05 03:29:58;;;;;;;42.50;11.45;;;;;;;4.33;91.40;99919.00;5066229;28;20373;-85
2022/01/05 03:32:31;;;;;;;32.13;11.63;;;;;;;3.75;90.66;99852.34;5066796;28;20415;-87
2022/01/05 03:34:58;;;;;;;38.55;12.27;;;;;;;3.99;91.40;99883.88;5068138;28;20109;-87
2022/01/05 03:37:24;;;;;;;26.55;11.20;;;;;;;3.72;90.79;99802.69;5067794;28;20105;-89
2022/01/05 03:39:51;;;;;;;30.85;11.48;;;;;;;3.96;91.22;99869.19;5068499;28;20271;-84
2022/01/05 03:42:17;;;;;;;17.40;10.88;;;;;;;3.90;90.94;99827.59;5069604;28;20229;-86
2022/01/05 03:44:44;;;;;;;13.80;10.18;;;;;;;3.50;90.97;99730.78;5068313;28;20443;-83
2022/01/05 03:47:11;;;;;;;36.22;11.73;;;;;;;4.75;90.82;99944.84;5067003;28;20059;-86
2022/01/05 03:49:37;;;;;;;22.48;11.63;;;;;;;4.25;90.78;99863.56;5067964;28;20090;-84
2022/01/05 03:52:04;;;;;;;40.50;12.07;;;;;;;4.89;90.31;99956.00;5068259;28;20052;-87
2022/01/05 03:54:31;;;;;;;43.30;11.55;;;;;;;3.60;90.03;99730.94;5069308;28;20044;-86
2022/01/05 03:56:58;;;;;;;25.40;11.50;;;;;;;3.71;89.77;99766.88;5070552;28;20105;-89
2022/01/05 03:59:27;;;;;;;25.67;11.43;;;;;;;2.99;89.89;99684.63;5085154;28;20053;-91
2022/01/05 04:01:54;;;;;;;33.47;11.95;;;;;;;4.65;90.59;99953.41;5083535;28;20095;-86
2022/01/05 04:04:24;;;;;;;20.23;11.75;;;;;;;3.73;90.38;99781.56;5065881;28;20564;-85
2022/01/05 04:06:50;;;;;;;19.38;12.18;;;;;;;3.17;90.83;99692.09;5066787;28;20392;-84
2022/01/05 04:09:17;;;;;;;14.65;10.95;;;;;;;3.47;90.94;99727.53;5065254;28;20275;-86
2022/01/05 04:11:44;;;;;;;22.60;12.52;;;;;;;3.73;90.59;99778.13;5066594;28;20049;-86
2022/01/05 04:14:12;;;;;;;24.23;12.02;;;;;;;4.06;90.83;99824.69;5066552;28;20442;-85
2022/01/05 04:16:39;;;;;;;20.40;12.63;;;;;;;4.07;90.85;99836.84;5082107;28;20098;-86
2022/01/05 04:19:06;;;;;;;20.27;12.18;;;;;;;4.09;90.74;99786.84;5065388;28;20052;-89
2022/01/05 04:21:32;;;;;;;13.85;11.02;;;;;;;3.60;90.26;99742.25;5066742;28;20070;-84
2022/01/05 04:23:59;;;;;;;14.48;11.88;;;;;;;3.74;90.41;99774.53;5065128;28;20114;-85
2022/01/05 04:26:26;;;;;;;12.10;10.88;;;;;;;3.22;90.31;99679.47;5066438;28;20053;-86
2022/01/05 04:28:52;;;;;;;12.68;9.95;;;;;;;3.69;90.63;99742.53;5066677;28;20153;-86
2022/01/05 04:31:19;;;;;;;13.75;11.52;;;;;;;4.50;91.17;99888.84;5081654;28;20102;-85
2022/01/05 04:33:45;;;;;;;11.27;10.07;;;;;;;4.64;91.25;99906.22;5065329;28;20053;-88
2022/01/05 04:36:33;;;;;;;11.63;10.32;;;;;;;4.60;91.11;99896.88;5064982;28;20049;-84
2022/01/05 04:39:02;;;;;;;12.77;11.48;;;;;;;4.63;90.89;99891.38;5064965;28;20328;-84
2022/01/05 04:41:31;;;;;;;12.52;11.23;;;;;;;4.56;91.10;99890.16;5066283;28;20487;-85
2022/01/05 04:43:58;;;;;;;13.00;11.70;;;;;;;4.42;90.88;99834.22;5082160;28;20135;-87
2022/01/05 04:46:24;;;;;;;11.85;10.60;;;;;;;4.49;91.15;99872.25;5067109;28;20431;-85
2022/01/05 04:48:51;;;;;;;12.50;11.18;;;;;;;3.05;91.24;99617.75;5065050;28;20705;-84
2022/01/05 04:51:21;;;;;;;12.82;10.82;;;;;;;3.33;90.89;99645.44;5066109;28;20060;-84
2022/01/05 04:53:47;;;;;;;12.60;11.23;;;;;;;2.88;90.99;99586.72;5064838;28;20118;-86
2022/01/05 04:56:14;;;;;;;12.15;10.95;;;;;;;3.26;90.62;99659.13;5066006;28;20072;-85
2022/01/05 04:58:40;;;;;;;12.10;10.90;;;;;;;3.54;91.24;99692.84;5066160;28;20294;-84
2022/01/05 05:01:07;;;;;;;12.10;10.73;;;;;;;3.96;91.33;99761.50;5063797;28;20250;-88
2022/01/05 05:03:34;;;;;;;11.98;10.77;;;;;;;4.60;90.97;99841.66;5062576;28;20117;-84
2022/01/05 05:06:01;;;;;;;11.75;10.55;;;;;;;3.81;90.54;99675.97;5063786;28;20079;-87
2022/01/05 05:08:27;;;;;;;12.10;10.82;;;;;;;4.38;90.61;99790.72;5063762;28;20048;-85
2022/01/05 05:10:54;;;;;;;11.57;10.38;;;;;;;4.86;90.91;99864.19;5065136;28;20139;-86
2022/01/05 05:13:21;;;;;;;11.20;10.02;;;;;;;3.83;90.42;99701.16;5064893;28;20576;-84
2022/01/05 05:15:47;;;;;;;11.20;9.98;;;;;;;4.78;91.25;99850.78;5068592;28;20549;-86
2022/01/05 05:18:14;;;;;;;11.85;10.65;;;;;;;4.31;91.16;99767.66;5068620;28;20056;-82
2022/01/05 05:20:41;;;;;;;10.98;9.93;;;;;;;4.20;90.81;99760.59;5068389;28;20105;-84
2022/01/05 05:23:07;;;;;;;10.38;9.43;;;;;;;4.61;90.61;99822.31;5068387;28;20047;-86
2022/01/05 05:25:34;;;;;;;10.85;9.73;;;;;;;3.31;90.33;99600.09;5066571;28;20052;-85
2022/01/05 05:28:00;;;;;;;10.57;9.55;;;;;;;3.86;90.47;99694.88;5067296;28;20059;-85
2022/01/05 05:30:34;;;;;;;10.23;9.23;;;;;;;4.99;90.53;99873.75;5068889;28;20056;-84
2022/01/05 05:33:02;;;;;;;11.25;9.52;;;;;;;4.91;90.24;99866.47;5061953;28;20057;-83
2022/01/05 05:35:30;;;;;;;12.48;10.35;;;;;;;5.15;90.50;99869.00;5047265;28;20048;-86
2022/01/05 05:37:57;;;;;;;10.98;9.77;;;;;;;4.38;90.44;99747.84;5046517;28;20045;-86
2022/01/05 05:40:24;;;;;;;10.50;9.50;;;;;;;5.15;90.56;99882.16;5047074;28;20056;-87
2022/01/05 05:42:51;;;;;;;10.65;9.65;;;;;;;5.01;90.24;99850.81;5048841;28;20461;-83
2022/01/05 05:45:18;;;;;;;11.68;9.52;;;;;;;5.28;90.28;99885.47;5047285;28;20274;-85
2022/01/05 05:47:47;;;;;;;11.15;9.98;;;;;;;5.25;90.33;99861.22;5053283;28;20044;-85
2022/01/05 05:50:14;;;;;;;10.85;9.73;;;;;;;5.35;90.29;99855.09;5069345;28;20151;-84
2022/01/05 05:52:41;;;;;;;10.80;9.77;;;;;;;4.97;90.47;99792.31;5066941;28;20102;-86
2022/01/05 05:55:08;;;;;;;11.75;10.65;;;;;;;5.26;90.68;99779.50;5068284;28;20049;-84
2022/01/05 05:57:41;;;;;;;11.35;10.15;;;;;;;5.50;89.99;99804.81;5068413;28;20136;-85
2022/01/05 06:00:08;;;;;;;6.82;6.22;;;;;;;6.22;90.83;99833.22;5067098;28;20135;-85
2022/01/05 06:02:36;;;;;;;7.95;7.25;;;;;;;7.02;90.13;99839.66;5066435;28;20056;-86
2022/01/05 06:05:03;;;;;;;9.57;5.75;;;;;;;7.61;88.38;99816.91;5068429;28;20037;-84
2022/01/05 06:07:29;;;;;;;4.72;4.28;;;;;;;8.24;85.83;99829.75;5068612;28;20103;-86
2022/01/05 06:09:59;;;;;;;5.05;4.57;;;;;;;8.29;84.70;99740.25;5066402;28;20168;-86
2022/01/05 06:12:27;;;;;;;5.50;4.60;;;;;;;7.56;80.31;99555.81;5067073;28;20049;-86
2022/01/05 06:14:53;;;;;;;3.80;3.47;;;;;;;9.23;80.55;99763.16;5066459;28;20480;-85
2022/01/05 06:17:20;;;;;;;3.90;2.90;;;;;;;9.38;79.87;99732.53;5066466;28;20144;-86
2022/01/05 06:19:47;;;;;;;4.22;3.72;;;;;;;9.98;78.28;99796.38;5066240;28;20375;-86
2022/01/05 06:22:17;;;;;;;6.07;2.35;;;;;;;10.00;80.36;99769.69;5065963;28;20076;-88
2022/01/05 06:24:47;;;;;;;4.63;4.22;;;;;;;10.36;78.78;99789.09;5065498;28;20052;-87
2022/01/05 06:27:14;;;;;;;4.63;3.63;;;;;;;10.54;74.28;99785.56;5066563;28;20048;-87
2022/01/05 06:29:40;;;;;;;2.30;2.10;;;;;;;10.23;75.63;99735.59;5066167;28;20046;-83
2022/01/05 06:32:08;;;;;;;3.55;3.25;;;;;;;10.73;74.19;99806.59;5065836;28;20575;-87
2022/01/05 06:34:34;;;;;;;3.58;3.28;;;;;;;10.30;76.12;99726.03;5067537;28;20403;-84
2022/01/05 06:37:05;;;;;;;3.40;3.05;;;;;;;10.22;74.10;99702.09;5066097;28;20472;-86
2022/01/05 06:39:33;;;;;;;3.53;3.22;;;;;;;9.88;75.12;99652.47;5066517;28;20293;-84
2022/01/05 06:42:00;;;;;;;4.40;3.45;;;;;;;10.45;72.15;99735.09;5059052;28;20400;-84
2022/01/05 06:44:27;;;;;;;6.57;3.28;;;;;;;9.15;71.23;99528.22;5045334;28;20057;-84
2022/01/05 06:46:57;;;;;;;3.33;2.90;;;;;;;9.66;71.77;99607.91;5046094;28;20044;-84
2022/01/05 06:49:26;;;;;;;4.38;2.80;;;;;;;10.04;74.23;99673.78;5047982;28;20057;-88
2022/01/05 06:51:53;;;;;;;3.58;3.28;;;;;;;9.82;72.22;99626.59;5046178;28;20084;-86
2022/01/05 06:54:24;;;;;;;3.08;2.83;;;;;;;10.48;70.90;99725.97;5046711;28;20064;-86
2022/01/05 06:56:50;;;;;;;3.95;3.55;;;;;;;9.87;71.11;99629.59;5047950;28;20335;-83
2022/01/05 06:59:17;;;;;;;3.53;3.22;;;;;;;10.08;70.88;99668.19;5047481;28;20111;-85
2022/01/05 07:01:44;;;;;;;3.13;2.83;;;;;;;10.89;70.35;99804.00;5047464;28;20545;-85
2022/01/05 07:04:11;;;;;;;3.20;2.90;;;;;;;9.46;70.73;99573.66;5047777;28;20067;-85
2022/01/05 07:06:41;;;;;;;3.58;2.80;;;;;;;10.28;71.40;99698.84;5045577;28;20077;-88
2022/01/05 07:09:08;;;;;;;3.58;3.30;;;;;;;9.72;69.66;99607.31;5051264;28;20082;-87
2022/01/05 07:11:35;;;;;;;3.17;2.88;;;;;;;10.10;70.81;99661.75;5067171;28;20084;-87
2022/01/05 07:14:02;;;;;;;4.60;3.35;;;;;;;11.07;69.55;99792.50;5065587;28;20055;-85
2022/01/05 07:16:29;;;;;;;3.05;2.83;;;;;;;9.96;71.51;99636.63;5067180;28;20080;-87
2022/01/05 07:18:56;;;;;;;3.72;3.22;;;;;;;9.66;70.07;99569.00;5065040;28;20048;-87
2022/01/05 07:21:22;;;;;;;4.28;2.90;;;;;;;10.31;69.19;99695.88;5066649;28;20113;-88
2022/01/05 07:23:49;;;;;;;4.45;2.67;;;;;;;9.86;70.18;99617.34;5065092;28;20480;-86
2022/01/05 07:26:16;;;;;;;3.13;2.70;;;;;;;10.10;69.01;99656.44;5055314;28;20049;-88
2022/01/05 07:28:45;;;;;;;3.15;2.90;;;;;;;10.33;69.71;99704.50;5044942;28;20640;-85
2022/01/05 07:31:11;;;;;;;5.82;2.70;;;;;;;9.73;70.33;99595.69;5045920;28;20334;-88
2022/01/05 07:33:41;;;;;;;4.50;2.65;;;;;;;10.59;71.33;99735.50;5045958;28;20060;-87
2022/01/05 07:36:07;;;;;;;2.75;2.55;;;;;;;10.79;70.31;99770.63;5047221;28;20084;-88
2022/01/05 07:38:34;;;;;;;5.57;3.25;;;;;;;10.81;69.44;99779.25;5063029;28;20029;-89
2022/01/05 07:41:01;;;;;;;2.83;2.53;;;;;;;10.31;72.37;99711.78;5055807;28;20264;-87
2022/01/05 07:43:27;;;;;;;2.83;2.40;;;;;;;10.80;69.67;99772.28;5054044;28;20057;-87
2022/01/05 07:45:56;;;;;;;3.28;2.50;;;;;;;10.76;67.85;99720.50;5044834;28;20053;-86
2022/01/05 07:48:26;;;;;;;2.75;2.50;;;;;;;11.05;68.14;99783.84;5044873;28;20488;-87
2022/01/05 07:50:52;;;;;;;5.32;2.90;;;;;;;10.64;69.58;99727.91;5044324;28;20348;-87
2022/01/05 07:53:19;;;;;;;3.40;2.55;;;;;;;11.10;70.34;99770.94;5044370;28;20144;-85
2022/01/05 07:55:49;;;;;;;2.55;2.35;;;;;;;11.09;70.33;99764.78;5045507;28;20485;-86
2022/01/05 07:58:19;;;;;;;3.88;2.40;;;;;;;11.05;69.84;99741.38;5044493;28;20048;-87
2022/01/05 08:00:45;;;;;;;3.17;2.15;;;;;;;11.17;70.99;99779.94;5044079;28;20432;-87
2022/01/05 08:03:12;;;;;;;3.25;2.60;;;;;;;10.60;68.26;99662.84;5044471;28;20061;-89
2022/01/05 08:05:39;;;;;;;3.00;2.42;;;;;;;11.19;67.84;99754.03;5044937;28;20060;-86
2022/01/05 08:08:10;;;;;;;2.75;2.55;;;;;;;10.49;69.51;99663.97;5044215;28;20051;-88
2022/01/05 08:10:36;;;;;;;3.10;2.88;;;;;;;10.10;69.05;99581.31;5061431;28;20072;-87
2022/01/05 08:13:03;;;;;;;2.80;2.30;;;;;;;10.43;68.96;99607.03;5064761;28;20106;-86
2022/01/05 08:15:30;;;;;;;3.15;2.40;;;;;;;10.42;68.53;99600.09;5064611;28;20083;-87
2022/01/05 08:17:57;;;;;;;4.53;2.95;;;;;;;10.41;70.49;99595.78;5065642;28;20151;-87
2022/01/05 08:20:23;;;;;;;4.07;2.45;;;;;;;11.48;71.28;99747.44;5065732;28;20048;-90
2022/01/05 08:22:50;;;;;;;4.70;2.20;;;;;;;10.12;70.54;99503.31;5067498;28;20048;-88
2022/01/05 08:25:29;;;;;;;4.30;2.90;;;;;;;10.28;68.41;99499.88;5067270;28;20145;-86
2022/01/05 08:27:59;;;;;;;3.35;2.60;;;;;;;10.97;67.91;99625.31;5083091;28;20045;-87
2022/01/05 08:30:33;;;;;;;3.92;2.22;;;;;;;11.05;67.88;99595.28;5064487;28;20124;-86
2022/01/05 08:33:01;;;;;;;3.38;2.63;;;;;;;11.30;68.80;99649.25;5064768;28;20083;-87
2022/01/05 08:35:28;;;;;;;3.63;2.25;;;;;;;10.36;68.93;99489.28;5065136;28;20498;-86
2022/01/05 08:37:55;;;;;;;6.15;2.88;;;;;;;11.12;71.97;99583.00;5065459;28;20102;-84
2022/01/05 08:40:24;;;;;;;6.82;2.33;;;;;;;11.42;72.57;99588.66;5048301;28;20055;-85
2022/01/05 08:42:54;;;;;;;1.77;1.67;;;;;;;11.84;71.82;99617.69;5045092;28;20056;-84
2022/01/05 08:45:23;;;;;;;4.13;2.47;;;;;;;12.31;71.86;99680.00;5045612;28;20524;-84
2022/01/05 08:47:52;;;;;;;3.95;2.42;;;;;;;12.66;71.35;99723.97;5045669;28;20057;-83
2022/01/05 08:50:23;;;;;;;10.52;2.28;;;;;;;12.09;70.92;99617.69;5048782;28;20216;-82
2022/01/05 08:52:51;;;;;;;2.85;2.17;;;;;;;12.75;70.81;99704.31;5048782;28;20102;-86
2022/01/05 08:55:20;;;;;;;4.28;2.65;;;;;;;12.74;70.72;99715.13;5049873;28;20172;-83
2022/01/05 08:57:47;;;;;;;4.10;2.35;;;;;;;12.11;70.16;99573.94;5048838;28;20041;-86
2022/01/05 09:00:14;;;;;;;3.28;2.40;;;;;;;13.11;70.64;99735.81;5048823;28;20061;-85
2022/01/05 09:02:41;;;;;;;6.07;2.50;;;;;;;13.08;70.79;99727.31;5047792;28;20056;-84
2022/01/05 09:05:12;;;;;;;5.28;2.40;;;;;;;12.99;70.90;99718.53;5046967;28;20072;-83
2022/01/05 09:07:39;;;;;;;5.22;2.70;;;;;;;13.12;70.32;99715.31;5046902;28;20127;-82
2022/01/05 09:10:06;;;;;;;4.78;2.47;;;;;;;12.97;70.50;99681.41;5060394;28;20476;-85
2022/01/05 09:12:34;;;;;;;5.75;3.10;;;;;;;13.01;70.76;99709.38;5068314;28;20407;-84
2022/01/05 09:15:02;;;;;;;6.75;3.13;;;;;;;12.87;69.62;99651.50;5067166;28;20040;-84
2022/01/05 09:17:38;;;;;;;7.15;2.80;;;;;;;13.16;69.20;99716.63;5067358;28;20055;-85
2022/01/05 09:20:06;;;;;;;51.50;5.97;;;;;;;13.25;69.89;99747.53;5068131;28;20059;-84
2022/01/05 09:22:37;;;;;;;27.95;4.07;;;;;;;13.03;69.59;99712.69;5068177;28;20512;-85
2022/01/05 09:25:07;;;;;;;10.93;3.17;;;;;;;13.04;68.51;99692.19;5068415;28;20139;-85
2022/01/05 09:27:41;;;;;;;12.02;3.22;;;;;;;12.93;68.12;99693.41;5068002;28;20094;-86
2022/01/05 09:30:15;;;;;;;45.58;6.38;;;;;;;12.39;65.97;99571.66;5068308;28;20135;-89
2022/01/05 09:32:44;;;;;;;31.67;5.60;;;;;;;13.34;65.18;99746.53;5067747;28;20475;-86
2022/01/05 09:35:16;;;;;;;29.02;4.97;;;;;;;11.88;64.89;99547.25;5068201;28;20141;-85
2022/01/05 09:43:48;;;;;;;16.50;3.92;;;;;;;12.69;69.96;99725.47;5069073;28;20086;-83
2022/01/05 09:46:44;;;;;;;17.23;3.70;;;;;;;12.68;71.05;99721.97;5068783;28;20044;-82
2022/01/05 09:49:17;;;;;;;16.98;4.63;;;;;;;11.37;70.68;99490.00;5040645;28;20113;-88
2022/01/05 09:51:50;;;;;;;10.10;3.22;;;;;;;12.94;69.40;99713.72;5067382;28;20080;-86
2022/01/05 09:54:17;;;;;;;12.18;3.80;;;;;;;12.93;69.71;99696.06;5067410;28;20140;-83
2022/01/05 09:56:58;;;;;;;12.48;4.45;;;;;;;13.20;70.51;99736.56;5067495;28;20476;-83
2022/01/05 09:59:25;;;;;;;15.40;3.53;;;;;;;13.19;70.93;99748.25;5067872;28;20118;-81
2022/01/05 10:01:55;;;;;;;7.57;3.00;;;;;;;13.25;69.82;99713.75;5083862;28;20072;-82
2022/01/05 10:04:22;;;;;;;10.52;4.40;;;;;;;13.37;70.08;99734.69;5067478;28;20045;-84
2022/01/05 10:06:49;;;;;;;6.82;3.25;;;;;;;13.21;70.62;99716.94;5067399;28;20380;-83
2022/01/05 10:09:16;;;;;;;7.10;3.17;;;;;;;13.35;69.64;99710.88;5067347;28;20102;-85
2022/01/05 10:11:43;;;;;;;10.32;3.60;;;;;;;13.44;69.50;99725.78;5066796;28;20451;-85
2022/01/05 10:14:13;;;;;;;10.55;3.88;;;;;;;13.58;68.40;99716.22;5067447;28;20049;-87
2022/01/05 10:16:40;;;;;;;6.40;3.50;;;;;;;13.42;68.82;99690.50;5068181;28;20140;-83
2022/01/05 10:19:08;;;;;;;7.55;2.97;;;;;;;13.56;68.56;99715.56;5050792;28;20059;-83
2022/01/05 10:21:36;;;;;;;18.65;4.13;;;;;;;13.60;68.51;99713.38;5066770;28;20056;-79
2022/01/05 10:24:04;;;;;;;13.63;3.30;;;;;;;13.35;67.00;99652.25;5066655;28;20084;-78
2022/01/05 10:26:32;;;;;;;6.13;3.90;;;;;;;13.51;67.87;99714.44;5066462;28;20049;-81
2022/01/05 10:29:01;;;;;;;18.85;3.60;;;;;;;13.50;66.61;99718.13;5069293;28;20076;-80
2022/01/05 10:31:32;;;;;;;14.45;3.70;;;;;;;13.41;67.48;99710.16;5066516;28;20078;-79
2022/01/05 10:34:20;;;;;;;8.15;3.75;;;;;;;13.16;67.20;99664.16;5068003;28;20044;-79
2022/01/05 10:36:51;;;;;;;6.80;3.58;;;;;;;13.39;68.54;99714.00;5066582;28;20118;-82
2022/01/05 10:39:20;;;;;;;4.47;3.20;;;;;;;13.21;67.89;99655.63;5067118;28;20478;-82
2022/01/05 10:41:47;;;;;;;5.18;3.65;;;;;;;13.54;68.17;99701.56;5066565;28;20102;-81
2022/01/05 10:44:18;;;;;;;7.53;3.80;;;;;;;13.60;68.30;99700.88;5063190;28;20704;-83
2022/01/05 10:46:48;;;;;;;8.13;4.15;;;;;;;13.60;68.12;99686.72;5067751;28;20423;-82
2022/01/05 10:49:26;;;;;;;10.32;3.70;;;;;;;13.77;67.42;99695.41;5057178;28;20060;-83
2022/01/05 10:51:53;;;;;;;6.22;3.60;;;;;;;13.69;67.81;99685.66;5047975;28;20049;-81
2022/01/05 10:54:27;;;;;;;8.75;3.75;;;;;;;13.63;67.90;99665.84;5046275;28;20049;-83
2022/01/05 10:57:05;;;;;;;11.15;4.00;;;;;;;13.66;67.84;99670.81;5044799;28;20045;-83
2022/01/05 10:59:42;;;;;;;9.07;4.05;;;;;;;13.67;67.54;99650.31;5044856;28;20059;-82
2022/01/05 11:02:29;;;;;;;6.07;3.45;;;;;;;13.74;67.39;99661.06;5042544;28;20465;-82
2022/01/05 11:05:12;;;;;;;8.88;3.85;;;;;;;13.74;67.10;99659.25;5041830;28;20059;-82
2022/01/05 11:07:46;;;;;;;6.03;3.47;;;;;;;13.72;67.23;99669.28;5044385;28;20149;-80
2022/01/05 11:10:17;;;;;;;14.82;13.18;;;;;;;13.64;65.39;99656.00;5059289;28;20131;-81
2022/01/05 11:12:53;;;;;;;17.13;14.55;;;;;;;13.49;65.20;99673.78;5065382;28;20049;-82
2022/01/05 11:15:23;;;;;;;20.55;16.73;;;;;;;13.07;65.74;99691.03;5067342;28;20068;-82
2022/01/05 11:18:08;;;;;;;19.13;17.02;;;;;;;12.11;67.68;99621.84;5066095;28;20058;-80
2022/01/05 11:21:05;;;;;;;20.35;17.75;;;;;;;11.73;69.38;99656.09;5065485;28;20106;-81
2022/01/05 11:23:32;;;;;;;22.60;18.38;;;;;;;11.69;70.11;99685.84;5065502;28;20040;-81
2022/01/05 11:26:01;;;;;;;20.17;18.02;;;;;;;11.58;69.96;99700.31;5065552;28;20148;-80
2022/01/05 11:28:30;;;;;;;24.88;20.20;;;;;;;11.24;70.70;99690.63;5064791;28;20051;-82
2022/01/05 11:30:57;;;;;;;26.83;19.42;;;;;;;10.81;71.33;99681.84;5065595;28;20048;-82
2022/01/05 11:33:26;;;;;;;24.55;21.38;;;;;;;10.44;72.01;99663.63;5066798;28;20066;-83
2022/01/05 11:35:53;;;;;;;24.10;21.48;;;;;;;10.31;72.96;99672.00;5066040;28;20058;-81
2022/01/05 11:38:20;;;;;;;25.00;20.80;;;;;;;10.37;73.45;99705.03;5070891;28;20068;-81
2022/01/05 11:40:54;;;;;;;27.95;21.85;;;;;;;10.21;73.73;99697.75;5069275;28;20072;-81